Stena Europe — VSTA3 — position and weather

sailwx.info

Track history (hours):
 
Tides and Currents Weather Stations Pressure Air Temp Water Temp Dewpoint Dewpoint Depression Visibility Wind Speed Wind Dir Waves Ship Positions

Stena Europe

Operator: Stena Line

Last reported at 2020-Sep-27 07:30 UTC. Time now 2020-Sep-27 13:10 UTC.
Position N 52°13' W 006°03'.

Length 149 m; draft 6.1 m.

Type: Passenger vessel. MMSI: 235004539.

Date/timePositionNaut miles runAvg speedWind from/ knotsBaromVisibWave heightAir tempDewpointWater temp
2020-Sep-27 07:30N 52°13' W 006°03'11 2.4
2020-Sep-27 03:00N 52°15' W 006°20'8 0.6
2020-Sep-26 15:01N 52°13' W 006°08'8 1.1
2020-Sep-26 08:01N 52°11' W 005°56'918.4
2020-Sep-26 07:31N 52°14' W 006°10'612.8
2020-Sep-26 07:01N 52°15' W 006°20'0 0.0
2020-Sep-26 06:31N 52°15' W 006°20'0 0.0
2020-Sep-26 05:31N 52°15' W 006°20'33 6.6
2020-Sep-26 00:27N 52°07' W 005°27'8 0.8
2020-Sep-25 14:30N 52°10' W 005°40'1 0.2
2020-Sep-25 08:23N 52°09' W 005°38'1617.8
2020-Sep-25 07:30N 52°12' W 006°03'917.1
2020-Sep-25 07:00N 52°15' W 006°16'2 2.5
2020-Sep-25 06:00N 52°15' W 006°20'0 0.0
2020-Sep-25 04:00N 52°15' W 006°20'1 0.1
2020-Sep-24 17:00N 52°15' W 006°18'1 1.1
2020-Sep-24 16:00N 52°15' W 006°20'0 0.0
2020-Sep-24 15:30N 52°15' W 006°20'2214.6
2020-Sep-24 14:00N 52°10' W 005°46'10 1.5
2020-Sep-24 07:30N 52°11' W 006°02'1211.9
2020-Sep-24 06:30N 52°15' W 006°20'0 0.0
2020-Sep-24 05:30N 52°15' W 006°20'0 0.0
2020-Sep-24 03:00N 52°15' W 006°20'2 3.6
2020-Sep-24 02:30N 52°15' W 006°17'816.1
2020-Sep-24 02:00N 52°13' W 006°05'16 2.2
2020-Sep-23 18:34N 52°09' W 005°39'25 7.0
2020-Sep-23 15:00N 52°15' W 006°18'1818.2
2020-Sep-23 14:00N 52°10' W 005°50'7 0.6
2020-Sep-23 02:00N 52°12' W 006°01'12 1.3
2020-Sep-22 16:30N 52°15' W 006°20'0 0.0
2020-Sep-22 16:00N 52°15' W 006°20'0 0.0
2020-Sep-22 15:30N 52°15' W 006°20'16 2.2
2020-Sep-22 07:59N 52°11' W 005°54'917.6
2020-Sep-22 07:31N 52°13' W 006°08'815.6
2020-Sep-22 07:00N 52°15' W 006°20'0 0.0
2020-Sep-22 05:00N 52°15' W 006°20'0 0.0
2020-Sep-22 04:00N 52°15' W 006°20'0 0.0
2020-Sep-22 03:30N 52°15' W 006°20'53 7.2
2020-Sep-21 20:10N 52°01' W 004°58'5018.8
2020-Sep-21 17:30N 52°14' W 006°16'3 1.8
2020-Sep-21 16:00N 52°15' W 006°20'2411.9
2020-Sep-21 14:00N 52°09' W 005°43'2 0.3
2020-Sep-21 08:30N 52°09' W 005°40'1514.6
2020-Sep-21 07:30N 52°13' W 006°03'11 5.4
2020-Sep-21 05:30N 52°15' W 006°20'18 4.6
2020-Sep-21 01:30N 52°11' W 005°51'1111.3
2020-Sep-21 00:31N 52°09' W 005°33'1212.0
2020-Sep-20 23:30N 52°05' W 005°15'1 0.2
2020-Sep-20 19:30N 52°06' W 005°14'1217.6
2020-Sep-20 18:51N 52°09' W 005°32'1417.0
2020-Sep-20 18:00N 52°11' W 005°55'917.1
2020-Sep-20 17:30N 52°13' W 006°08'815.2
2020-Sep-20 17:00N 52°15' W 006°20'0 0.2
2020-Sep-20 16:30N 52°15' W 006°20'0 0.0
2020-Sep-20 16:00N 52°15' W 006°20'13 9.0
2020-Sep-20 14:30N 52°12' W 005°59'11 1.9
2020-Sep-20 08:30N 52°09' W 005°41'2416.3
2020-Sep-20 07:00N 52°16' W 006°19'1 0.7
2020-Sep-20 06:00N 52°15' W 006°20'41 6.8
2020-Sep-20 00:00N 52°06' W 005°16'34 5.3
2020-Sep-19 17:30N 52°14' W 006°10'7 6.7
2020-Sep-19 16:30N 52°15' W 006°20'22 8.7
2020-Sep-19 14:00N 52°10' W 005°46'14 2.2
2020-Sep-19 07:31N 52°14' W 006°08'815.3
2020-Sep-19 07:00N 52°15' W 006°20'0 0.0
2020-Sep-19 05:00N 52°15' W 006°20'0 0.0
2020-Sep-19 04:30N 52°15' W 006°20'3 1.4
2020-Sep-19 02:31N 52°14' W 006°16'1615.5
2020-Sep-19 01:30N 52°10' W 005°52'34 6.1
2020-Sep-18 20:00N 52°02' W 004°59'1817.5
2020-Sep-18 19:00N 52°08' W 005°25'1916.6
2020-Sep-18 17:52N 52°12' W 005°56'13 4.6
2020-Sep-18 15:00N 52°15' W 006°17'2617.6
2020-Sep-18 13:30N 52°08' W 005°35'19 3.1
2020-Sep-18 07:30N 52°13' W 006°04'816.1
2020-Sep-18 07:00N 52°15' W 006°18'2 0.8
2020-Sep-18 04:55N 52°15' W 006°20'0 0.0
2020-Sep-18 02:56N 52°15' W 006°20'40 5.3
2020-Sep-17 19:22N 52°05' W 005°17'4016.5
2020-Sep-17 16:57N 52°15' W 006°20'  
Track history (hours):
 
Tides and Currents Weather Stations Pressure Air Temp Water Temp Dewpoint Dewpoint Depression Visibility Wind Speed Wind Dir Waves Ship Positions

Stena Europe

Operator: Stena Line

Last reported at 2020-Sep-27 07:30 UTC. Time now 2020-Sep-27 13:10 UTC.
Position N 52°13' W 006°03'.

Length 149 m; draft 6.1 m.

Type: Passenger vessel. MMSI: 235004539.

Date/timePositionNaut miles runAvg speedWind from/ knotsBaromVisibWave heightAir tempDewpointWater temp
2020-Sep-27 07:30N 52°13' W 006°03'11 2.4
2020-Sep-27 03:00N 52°15' W 006°20'8 0.6
2020-Sep-26 15:01N 52°13' W 006°08'8 1.1
2020-Sep-26 08:01N 52°11' W 005°56'918.4
2020-Sep-26 07:31N 52°14' W 006°10'612.8
2020-Sep-26 07:01N 52°15' W 006°20'0 0.0
2020-Sep-26 06:31N 52°15' W 006°20'0 0.0
2020-Sep-26 05:31N 52°15' W 006°20'33 6.6
2020-Sep-26 00:27N 52°07' W 005°27'8 0.8
2020-Sep-25 14:30N 52°10' W 005°40'1 0.2
2020-Sep-25 08:23N 52°09' W 005°38'1617.8
2020-Sep-25 07:30N 52°12' W 006°03'917.1
2020-Sep-25 07:00N 52°15' W 006°16'2 2.5
2020-Sep-25 06:00N 52°15' W 006°20'0 0.0
2020-Sep-25 04:00N 52°15' W 006°20'1 0.1
2020-Sep-24 17:00N 52°15' W 006°18'1 1.1
2020-Sep-24 16:00N 52°15' W 006°20'0 0.0
2020-Sep-24 15:30N 52°15' W 006°20'2214.6
2020-Sep-24 14:00N 52°10' W 005°46'10 1.5
2020-Sep-24 07:30N 52°11' W 006°02'1211.9
2020-Sep-24 06:30N 52°15' W 006°20'0 0.0
2020-Sep-24 05:30N 52°15' W 006°20'0 0.0
2020-Sep-24 03:00N 52°15' W 006°20'2 3.6
2020-Sep-24 02:30N 52°15' W 006°17'816.1
2020-Sep-24 02:00N 52°13' W 006°05'16 2.2
2020-Sep-23 18:34N 52°09' W 005°39'25 7.0
2020-Sep-23 15:00N 52°15' W 006°18'1818.2
2020-Sep-23 14:00N 52°10' W 005°50'7 0.6
2020-Sep-23 02:00N 52°12' W 006°01'12 1.3
2020-Sep-22 16:30N 52°15' W 006°20'0 0.0
2020-Sep-22 16:00N 52°15' W 006°20'0 0.0
2020-Sep-22 15:30N 52°15' W 006°20'16 2.2
2020-Sep-22 07:59N 52°11' W 005°54'917.6
2020-Sep-22 07:31N 52°13' W 006°08'815.6
2020-Sep-22 07:00N 52°15' W 006°20'0 0.0
2020-Sep-22 05:00N 52°15' W 006°20'0 0.0
2020-Sep-22 04:00N 52°15' W 006°20'0 0.0
2020-Sep-22 03:30N 52°15' W 006°20'53 7.2
2020-Sep-21 20:10N 52°01' W 004°58'5018.8
2020-Sep-21 17:30N 52°14' W 006°16'3 1.8
2020-Sep-21 16:00N 52°15' W 006°20'2411.9
2020-Sep-21 14:00N 52°09' W 005°43'2 0.3
2020-Sep-21 08:30N 52°09' W 005°40'1514.6
2020-Sep-21 07:30N 52°13' W 006°03'11 5.4
2020-Sep-21 05:30N 52°15' W 006°20'18 4.6
2020-Sep-21 01:30N 52°11' W 005°51'1111.3
2020-Sep-21 00:31N 52°09' W 005°33'1212.0
2020-Sep-20 23:30N 52°05' W 005°15'1 0.2
2020-Sep-20 19:30N 52°06' W 005°14'1217.6
2020-Sep-20 18:51N 52°09' W 005°32'1417.0
2020-Sep-20 18:00N 52°11' W 005°55'917.1
2020-Sep-20 17:30N 52°13' W 006°08'815.2
2020-Sep-20 17:00N 52°15' W 006°20'0 0.2
2020-Sep-20 16:30N 52°15' W 006°20'0 0.0
2020-Sep-20 16:00N 52°15' W 006°20'13 9.0
2020-Sep-20 14:30N 52°12' W 005°59'11 1.9
2020-Sep-20 08:30N 52°09' W 005°41'2416.3
2020-Sep-20 07:00N 52°16' W 006°19'1 0.7
2020-Sep-20 06:00N 52°15' W 006°20'41 6.8
2020-Sep-20 00:00N 52°06' W 005°16'34 5.3
2020-Sep-19 17:30N 52°14' W 006°10'7 6.7
2020-Sep-19 16:30N 52°15' W 006°20'22 8.7
2020-Sep-19 14:00N 52°10' W 005°46'14 2.2
2020-Sep-19 07:31N 52°14' W 006°08'815.3
2020-Sep-19 07:00N 52°15' W 006°20'0 0.0
2020-Sep-19 05:00N 52°15' W 006°20'0 0.0
2020-Sep-19 04:30N 52°15' W 006°20'3 1.4
2020-Sep-19 02:31N 52°14' W 006°16'1615.5
2020-Sep-19 01:30N 52°10' W 005°52'34 6.1
2020-Sep-18 20:00N 52°02' W 004°59'1817.5
2020-Sep-18 19:00N 52°08' W 005°25'1916.6
2020-Sep-18 17:52N 52°12' W 005°56'13 4.6
2020-Sep-18 15:00N 52°15' W 006°17'2617.6
2020-Sep-18 13:30N 52°08' W 005°35'19 3.1
2020-Sep-18 07:30N 52°13' W 006°04'816.1
2020-Sep-18 07:00N 52°15' W 006°18'2 0.8
2020-Sep-18 04:55N 52°15' W 006°20'0 0.0
2020-Sep-18 02:56N 52°15' W 006°20'40 5.3
2020-Sep-17 19:22N 52°05' W 005°17'4016.5
2020-Sep-17 16:57N 52°15' W 006°20'  

Dump ship's entire track history